A7ABI LTFJ-LTBA
Flight info
| Callsign | A7ABI |
|---|---|
| Flight time | N/A |
| Altitude | 5000 |
| Route | DCT |
| Aircraft | BE36/L-BDFGLORY/S |
Departure
| Time | 2026-05-04 12:46 |
|---|---|
| Airport | Istanbul Sabiha Gökçen International Airport (LTFJ) |
Arrival
| Time | N/A |
|---|---|
| Airport | İstanbul Atatürk Airport (LTBA) |
| Time | Latitude | Longitude | Altitude | Speed | Heading |
|---|---|---|---|---|---|
| 2026-05-04 12:27 | 40.89890 | 29.29956 | 311 ft | 0 kts | 339° |
| 2026-05-04 12:40 | 40.89896 | 29.29934 | 311 ft | 6 kts | 245° |
| 2026-05-04 12:40 | 40.89830 | 29.29916 | 311 ft | 14 kts | 167° |
| 2026-05-04 12:40 | 40.89732 | 29.29968 | 311 ft | 15 kts | 174° |
| 2026-05-04 12:41 | 40.89658 | 29.29947 | 311 ft | 6 kts | 177° |
| 2026-05-04 12:41 | 40.89635 | 29.29984 | 311 ft | 0 kts | 86° |
| 2026-05-04 12:43 | 40.89635 | 29.29986 | 311 ft | 1 kts | 86° |
| 2026-05-04 12:44 | 40.89635 | 29.30020 | 311 ft | 7 kts | 92° |
| 2026-05-04 12:44 | 40.89633 | 29.30114 | 312 ft | 13 kts | 94° |
| 2026-05-04 12:44 | 40.89638 | 29.30265 | 313 ft | 20 kts | 81° |
| 2026-05-04 12:44 | 40.89696 | 29.30469 | 313 ft | 35 kts | 61° |
| 2026-05-04 12:45 | 40.89871 | 29.30950 | 326 ft | 77 kts | 56° |
| 2026-05-04 12:45 | 40.90123 | 29.31650 | 448 ft | 90 kts | 58° |
| 2026-05-04 12:45 | 40.90402 | 29.32436 | 597 ft | 96 kts | 57° |
| 2026-05-04 12:45 | 40.90684 | 29.33237 | 819 ft | 96 kts | 59° |
| 2026-05-04 12:46 | 40.90971 | 29.34092 | 1003 ft | 110 kts | 58° |
| 2026-05-04 12:46 | 40.91301 | 29.35035 | 1206 ft | 115 kts | 58° |
| 2026-05-04 12:46 | 40.91790 | 29.35788 | 1435 ft | 110 kts | 11° |
| 2026-05-04 12:46 | 40.92404 | 29.35301 | 1526 ft | 123 kts | 292° |
| 2026-05-04 12:47 | 40.92532 | 29.34100 | 1519 ft | 136 kts | 282° |
| 2026-05-04 12:47 | 40.92656 | 29.32829 | 1508 ft | 145 kts | 279° |
| 2026-05-04 12:47 | 40.92732 | 29.31493 | 1501 ft | 146 kts | 278° |
| 2026-05-04 12:47 | 40.92792 | 29.30156 | 1557 ft | 142 kts | 280° |
| 2026-05-04 12:48 | 40.92877 | 29.28901 | 1617 ft | 144 kts | 277° |
| 2026-05-04 12:48 | 40.92990 | 29.27542 | 1509 ft | 153 kts | 287° |
| 2026-05-04 12:48 | 40.93245 | 29.26239 | 1738 ft | 129 kts | 292° |
| 2026-05-04 12:48 | 40.93485 | 29.25151 | 1850 ft | 120 kts | 285° |
| 2026-05-04 12:49 | 40.93678 | 29.23991 | 1674 ft | 143 kts | 291° |
| 2026-05-04 12:49 | 40.93952 | 29.22687 | 1784 ft | 152 kts | 290° |
| 2026-05-04 12:49 | 40.94223 | 29.21306 | 1888 ft | 158 kts | 287° |
| 2026-05-04 12:49 | 40.94356 | 29.19830 | 2055 ft | 162 kts | 276° |
| 2026-05-04 12:50 | 40.94385 | 29.18374 | 2440 ft | 154 kts | 280° |
| 2026-05-04 12:50 | 40.94385 | 29.16965 | 2816 ft | 152 kts | 277° |
| 2026-05-04 12:50 | 40.94345 | 29.15557 | 2994 ft | 158 kts | 276° |
| 2026-05-04 12:50 | 40.94312 | 29.14048 | 2995 ft | 169 kts | 276° |
| 2026-05-04 12:51 | 40.94292 | 29.12475 | 3001 ft | 171 kts | 276° |
| 2026-05-04 12:51 | 40.94265 | 29.10904 | 2998 ft | 170 kts | 276° |
| 2026-05-04 12:51 | 40.94237 | 29.09345 | 2996 ft | 168 kts | 276° |
| 2026-05-04 12:51 | 40.94213 | 29.07813 | 2994 ft | 166 kts | 276° |
| 2026-05-04 12:52 | 40.94190 | 29.06290 | 2996 ft | 165 kts | 276° |
| 2026-05-04 12:52 | 40.94165 | 29.04769 | 2961 ft | 166 kts | 276° |
| 2026-05-04 12:52 | 40.94141 | 29.03261 | 2958 ft | 166 kts | 276° |
| 2026-05-04 12:52 | 40.94116 | 29.01734 | 2956 ft | 165 kts | 276° |
| 2026-05-04 12:53 | 40.94093 | 29.00216 | 2950 ft | 165 kts | 276° |
| 2026-05-04 12:53 | 40.94068 | 28.98701 | 2949 ft | 164 kts | 276° |
| 2026-05-04 12:53 | 40.94042 | 28.97195 | 2950 ft | 164 kts | 276° |
| 2026-05-04 12:53 | 40.94014 | 28.95683 | 2938 ft | 165 kts | 276° |
| 2026-05-04 12:54 | 40.93989 | 28.94151 | 2940 ft | 168 kts | 276° |
| 2026-05-04 12:54 | 40.93966 | 28.92605 | 2943 ft | 168 kts | 276° |
| 2026-05-04 12:54 | 40.93945 | 28.91046 | 2991 ft | 169 kts | 276° |
| 2026-05-04 12:54 | 40.93896 | 28.89463 | 2909 ft | 176 kts | 275° |
| 2026-05-04 12:55 | 40.93866 | 28.87819 | 2686 ft | 178 kts | 276° |
| 2026-05-04 12:55 | 40.93845 | 28.86759 | 2521 ft | 170 kts | 276° |
| 2026-05-04 12:55 | 40.93811 | 28.85233 | 2209 ft | 163 kts | 276° |
| 2026-05-04 12:55 | 40.93785 | 28.83759 | 1907 ft | 156 kts | 279° |
| 2026-05-04 12:56 | 40.93775 | 28.81866 | 1508 ft | 151 kts | 275° |
| 2026-05-04 12:56 | 40.93756 | 28.80979 | 1492 ft | 135 kts | 276° |
| 2026-05-04 12:56 | 40.93782 | 28.79824 | 1272 ft | 119 kts | 284° |
| 2026-05-04 12:56 | 40.93864 | 28.78807 | 967 ft | 110 kts | 281° |
| 2026-05-04 12:57 | 40.94020 | 28.77941 | 883 ft | 85 kts | 326° |
| 2026-05-04 12:57 | 40.94574 | 28.78059 | 659 ft | 98 kts | 22° |
| 2026-05-04 12:57 | 40.95115 | 28.78567 | 606 ft | 92 kts | 32° |
| 2026-05-04 12:57 | 40.95552 | 28.79170 | 525 ft | 86 kts | 38° |
| 2026-05-04 12:58 | 40.95908 | 28.79767 | 432 ft | 79 kts | 39° |
| 2026-05-04 12:58 | 40.96197 | 28.80292 | 323 ft | 65 kts | 38° |